Time;durP1;ratioP1;P1;durP2;ratioP2;P2;SDS_P1;SDS_P2;PMS_P1;PMS_P2;Temp;Humidity;BMP_temperature;BMP_pressure;BME280_temperature;BME280_humidity;BME280_pressure;Samples;Min_cycle;Max_cycle;Signal;HPM_P1;HPM_P2
2022/01/28 00:02:34;;;;;;;;;;;0.60;99.90;;;;;;5111733;28;19946;-49
2022/01/28 00:05:01;;;;;;;;;;;0.60;99.90;;;;;;5100748;28;20343;-49
2022/01/28 00:07:28;;;;;;;;;;;0.70;99.90;;;;;;5106596;28;20012;-50
2022/01/28 00:09:55;;;;;;;;;;;0.70;99.90;;;;;;5101836;28;19969;-49
2022/01/28 00:12:23;;;;;;;;;;;0.60;99.90;;;;;;5102397;28;20000;-49
2022/01/28 00:14:54;;;;;;;;;;;0.60;99.90;;;;;;5112360;27;19928;-50
2022/01/28 00:18:01;;;;;;;;;;;0.60;99.90;;;;;;5114496;27;19934;-48
2022/01/28 00:37:05;;;;;;;;;;;0.90;99.90;;;;;;5094569;28;19931;-49
2022/01/28 00:39:32;;;;;;;;;;;0.90;99.90;;;;;;5113896;28;19928;-48
2022/01/28 00:41:59;;;;;;;;;;;0.80;99.90;;;;;;5114865;28;19932;-49
2022/01/28 00:44:25;;;;;;;;;;;0.80;99.90;;;;;;5114355;28;19924;-49
2022/01/28 00:46:52;;;;;;;;;;;0.70;99.90;;;;;;5114358;27;19927;-49
2022/01/28 00:49:20;;;;;;;;;;;0.60;99.90;;;;;;5114343;28;19927;-48
2022/01/28 00:51:47;;;;;;;;;;;0.60;99.90;;;;;;5114597;28;20389;-49
2022/01/28 00:54:14;;;;;;;;;;;0.60;99.90;;;;;;5114482;28;20290;-49
2022/01/28 00:56:41;;;;;;;;;;;0.60;99.90;;;;;;5114432;28;19931;-49
2022/01/28 00:59:08;;;;;;;;;;;0.60;99.90;;;;;;5113592;28;19981;-50
2022/01/28 01:01:34;;;;;;;;;;;0.60;99.90;;;;;;5122436;27;19976;-49
2022/01/28 01:04:01;;;;;;;;;;;0.60;99.90;;;;;;5114188;28;19946;-50
2022/01/28 01:06:30;;;;;;;;;;;0.60;99.90;;;;;;5136004;22;19939;-53
2022/01/28 01:08:56;;;;;;;;;;;0.70;99.90;;;;;;5115893;28;19924;-52
2022/01/28 01:11:24;;;;;;;;;;;0.70;99.90;;;;;;5116578;28;19945;-52
2022/01/28 01:13:51;;;;;;;;;;;0.70;99.90;;;;;;5116218;27;19924;-52
2022/01/28 01:16:25;;;;;;;;;;;0.80;99.90;;;;;;5115340;28;19957;-52
2022/01/28 01:19:02;;;;;;;;;;;0.80;99.90;;;;;;5105109;28;19924;-52
2022/01/28 01:21:37;;;;;;;;;;;0.70;99.90;;;;;;5116288;28;19977;-53
2022/01/28 01:24:04;;;;;;;;;;;0.80;99.90;;;;;;5115480;28;19924;-52
2022/01/28 01:26:33;;;;;;;;;;;0.90;99.90;;;;;;5115817;28;19983;-52
2022/01/28 01:28:59;;;;;;;;;;;0.90;99.90;;;;;;5115822;27;20328;-52
2022/01/28 01:31:26;;;;;;;;;;;1.10;99.90;;;;;;5115391;28;19935;-52
2022/01/28 01:33:59;;;;;;;;;;;0.90;99.90;;;;;;5115428;28;20373;-51
2022/01/28 01:36:26;;;;;;;;;;;1.00;99.90;;;;;;5115438;28;19931;-51
2022/01/28 01:38:54;;;;;;;;;;;1.00;99.90;;;;;;5115556;28;20055;-52
2022/01/28 01:41:29;;;;;;;;;;;0.90;99.90;;;;;;5115613;28;19930;-52
2022/01/28 01:44:01;;;;;;;;;;;1.00;99.90;;;;;;5115428;28;19930;-52
2022/01/28 01:46:39;;;;;;;;;;;1.00;99.90;;;;;;5115543;28;19928;-52
2022/01/28 01:52:04;;;;;;;;;;;1.00;99.90;;;;;;5116447;28;20457;-51
2022/01/28 01:54:35;;;;;;;;;;;1.00;99.90;;;;;;5123183;28;20018;-52
2022/01/28 01:57:02;;;;;;;;;;;0.90;99.90;;;;;;5131377;28;19924;-52
2022/01/28 01:59:29;;;;;;;;;;;0.90;99.90;;;;;;5131815;28;19946;-52
2022/01/28 02:01:57;;;;;;;;;;;0.90;99.90;;;;;;5127270;28;19984;-52
2022/01/28 02:04:23;;;;;;;;;;;1.00;99.90;;;;;;5113406;28;19923;-52
2022/01/28 02:06:50;;;;;;;;;;;1.00;99.90;;;;;;5115032;28;19928;-52
2022/01/28 02:09:17;;;;;;;;;;;0.90;99.90;;;;;;5114418;28;19924;-52
2022/01/28 02:11:45;;;;;;;;;;;0.80;99.90;;;;;;5114835;27;19928;-52
2022/01/28 02:14:13;;;;;;;;;;;0.80;99.90;;;;;;5115338;28;19924;-52
2022/01/28 02:16:39;;;;;;;;;;;0.90;99.90;;;;;;5114412;28;20414;-52
2022/01/28 02:19:06;;;;;;;;;;;0.90;99.90;;;;;;5114277;28;19924;-52
2022/01/28 02:21:35;;;;;;;;;;;0.90;99.90;;;;;;5114591;27;19923;-52
2022/01/28 02:24:04;;;;;;;;;;;0.80;99.90;;;;;;5113325;28;19932;-52
2022/01/28 02:26:31;;;;;;;;;;;0.80;99.90;;;;;;5113775;28;20019;-52
2022/01/28 02:29:06;;;;;;;;;;;1.00;99.90;;;;;;5114880;28;19924;-51
2022/01/28 02:31:33;;;;;;;;;;;1.00;99.90;;;;;;5113779;28;19930;-52
2022/01/28 02:34:00;;;;;;;;;;;0.90;99.90;;;;;;5114564;28;19932;-52
2022/01/28 02:36:27;;;;;;;;;;;0.80;99.90;;;;;;5114128;28;19985;-51
2022/01/28 02:38:57;;;;;;;;;;;1.00;99.90;;;;;;5114245;28;20343;-52
2022/01/28 02:41:27;;;;;;;;;;;0.90;99.90;;;;;;5114531;28;19967;-52
2022/01/28 02:44:06;;;;;;;;;;;1.00;99.90;;;;;;5114566;28;20338;-51
2022/01/28 02:46:35;;;;;;;;;;;0.90;99.90;;;;;;5114159;28;19946;-51
2022/01/28 02:49:06;;;;;;;;;;;0.90;99.90;;;;;;5114416;28;19931;-52
2022/01/28 02:51:33;;;;;;;;;;;0.80;99.90;;;;;;5114456;28;19970;-51
2022/01/28 02:54:12;;;;;;;;;;;0.80;99.90;;;;;;5114816;28;19928;-52
2022/01/28 02:56:48;;;;;;;;;;;0.90;99.90;;;;;;5112724;28;20462;-52
2022/01/28 02:59:15;;;;;;;;;;;0.80;99.90;;;;;;5113727;28;19924;-52
2022/01/28 03:01:42;;;;;;;;;;;0.90;99.90;;;;;;5114435;28;19924;-52
2022/01/28 03:04:11;;;;;;;;;;;0.90;99.90;;;;;;5113525;28;19924;-52
2022/01/28 03:06:38;;;;;;;;;;;0.80;99.90;;;;;;5113227;28;20309;-52
2022/01/28 03:09:14;;;;;;;;;;;0.80;99.90;;;;;;5113333;28;19924;-52
2022/01/28 03:11:46;;;;;;;;;;;0.80;99.90;;;;;;5114142;28;19963;-52
2022/01/28 03:14:21;;;;;;;;;;;1.00;99.90;;;;;;5114110;28;20343;-52
2022/01/28 03:19:45;;;;;;;;;;;0.90;99.90;;;;;;5110983;28;19920;-52
2022/01/28 03:22:12;;;;;;;;;;;1.00;99.90;;;;;;5113954;28;19923;-52
2022/01/28 03:24:41;;;;;;;;;;;1.00;99.90;;;;;;5113978;28;19923;-52
2022/01/28 03:27:14;;;;;;;;;;;1.00;99.90;;;;;;5113197;28;19928;-52
2022/01/28 03:29:40;;;;;;;;;;;1.10;99.90;;;;;;5113773;28;19928;-52
2022/01/28 03:32:07;;;;;;;;;;;1.00;99.90;;;;;;5113433;28;19924;-52
2022/01/28 03:34:34;;;;;;;;;;;1.00;99.90;;;;;;5112492;28;19928;-52
2022/01/28 03:37:01;;;;;;;;;;;1.00;99.90;;;;;;5113907;28;19928;-52
2022/01/28 03:39:28;;;;;;;;;;;1.10;99.90;;;;;;5113906;28;19930;-52
2022/01/28 03:41:56;;;;;;;;;;;1.10;99.90;;;;;;5113554;28;19927;-52
2022/01/28 03:44:22;;;;;;;;;;;1.10;99.90;;;;;;5113889;28;19924;-52
2022/01/28 03:46:49;;;;;;;;;;;1.20;99.90;;;;;;5113862;28;19984;-52
2022/01/28 03:49:16;;;;;;;;;;;1.40;99.90;;;;;;5117993;28;19924;-52
2022/01/28 03:51:43;;;;;;;;;;;1.40;99.90;;;;;;5117880;28;19923;-52
2022/01/28 03:54:09;;;;;;;;;;;1.50;99.90;;;;;;5117896;28;19924;-52
2022/01/28 03:56:36;;;;;;;;;;;1.60;99.90;;;;;;5116588;28;19923;-52
2022/01/28 03:59:04;;;;;;;;;;;1.60;99.90;;;;;;5117561;28;19928;-52
2022/01/28 04:01:35;;;;;;;;;;;1.70;99.90;;;;;;5117707;27;19924;-52
2022/01/28 04:12:28;;;;;;;;;;;1.80;99.90;;;;;;5112088;28;19926;-51
2022/01/28 04:15:07;;;;;;;;;;;1.80;99.90;;;;;;5111826;28;20027;-51
2022/01/28 04:17:34;;;;;;;;;;;1.80;99.90;;;;;;5111566;28;20304;-51
2022/01/28 04:20:01;;;;;;;;;;;1.90;99.90;;;;;;5131228;22;19981;-50
2022/01/28 04:22:29;;;;;;;;;;;1.90;99.90;;;;;;5109170;28;19924;-50
2022/01/28 04:24:56;;;;;;;;;;;1.80;99.90;;;;;;5109006;28;20382;-51
2022/01/28 04:27:23;;;;;;;;;;;1.70;99.90;;;;;;5096594;28;19925;-51
2022/01/28 04:29:49;;;;;;;;;;;1.80;99.90;;;;;;5088542;28;19928;-50
2022/01/28 04:32:18;;;;;;;;;;;1.80;99.90;;;;;;5088769;28;19955;-51
2022/01/28 04:34:45;;;;;;;;;;;1.90;99.90;;;;;;5088617;28;20393;-50
2022/01/28 04:37:20;;;;;;;;;;;1.90;99.90;;;;;;5093605;28;20057;-51
2022/01/28 04:39:52;;;;;;;;;;;2.10;99.90;;;;;;5098734;28;20302;-51
2022/01/28 04:42:33;;;;;;;;;;;2.10;99.90;;;;;;5108180;28;19963;-51
2022/01/28 04:45:06;;;;;;;;;;;2.10;99.90;;;;;;5105610;28;20336;-51
2022/01/28 04:47:40;;;;;;;;;;;1.90;99.90;;;;;;5108411;28;19931;-51
2022/01/28 04:50:15;;;;;;;;;;;1.80;99.90;;;;;;5108362;28;19924;-51
2022/01/28 04:55:50;;;;;;;;;;;1.70;99.90;;;;;;5108496;28;20005;-51
2022/01/28 04:58:34;;;;;;;;;;;1.70;99.90;;;;;;5107639;28;19935;-51
2022/01/28 05:01:20;;;;;;;;;;;1.70;99.90;;;;;;5108334;28;20344;-51
2022/01/28 05:03:59;;;;;;;;;;;1.60;99.90;;;;;;5108226;28;19924;-50
2022/01/28 05:12:41;;;;;;;;;;;1.90;99.90;;;;;;5108030;28;20389;-50
2022/01/28 05:24:05;;;;;;;;;;;1.80;99.90;;;;;;5094429;28;20042;-51
2022/01/28 05:26:26;;;;;;;;;;;1.70;99.90;;;;;;5092840;28;19924;-51
2022/01/28 05:28:54;;;;;;;;;;;1.90;99.90;;;;;;5093944;28;20296;-51
2022/01/28 05:31:21;;;;;;;;;;;1.80;99.90;;;;;;5093232;28;19924;-51
2022/01/28 05:33:48;;;;;;;;;;;1.70;99.90;;;;;;5094802;28;20343;-51
2022/01/28 05:36:15;;;;;;;;;;;1.80;99.90;;;;;;5083471;28;19928;-54
2022/01/28 05:38:42;;;;;;;;;;;1.80;99.90;;;;;;5091352;28;19924;-52
2022/01/28 05:41:09;;;;;;;;;;;1.80;99.90;;;;;;5093638;28;20028;-52
2022/01/28 05:43:36;;;;;;;;;;;1.70;99.90;;;;;;5093512;28;20389;-51
2022/01/28 05:46:04;;;;;;;;;;;1.60;99.90;;;;;;5099613;28;19924;-52
2022/01/28 05:48:31;;;;;;;;;;;1.70;99.90;;;;;;5092971;28;20075;-52
2022/01/28 05:50:57;;;;;;;;;;;1.70;99.90;;;;;;5092617;28;19924;-53
2022/01/28 05:53:24;;;;;;;;;;;1.70;99.90;;;;;;5092700;28;19925;-52
2022/01/28 05:55:51;;;;;;;;;;;1.80;99.90;;;;;;5092162;28;19928;-52
2022/01/28 05:58:19;;;;;;;;;;;1.70;99.90;;;;;;5097041;28;19927;-52
2022/01/28 06:00:45;;;;;;;;;;;1.80;99.90;;;;;;5085863;28;20401;-52
2022/01/28 06:03:14;;;;;;;;;;;1.70;99.90;;;;;;5093092;28;19924;-53
2022/01/28 06:05:41;;;;;;;;;;;1.60;99.90;;;;;;5092139;28;19924;-51
2022/01/28 06:08:08;;;;;;;;;;;1.60;99.90;;;;;;5091081;28;19995;-52
2022/01/28 06:10:36;;;;;;;;;;;1.50;99.90;;;;;;5093024;28;20417;-51
2022/01/28 06:13:05;;;;;;;;;;;1.40;99.90;;;;;;5093004;28;19923;-51
2022/01/28 06:15:32;;;;;;;;;;;1.40;99.90;;;;;;5093021;28;19976;-51
2022/01/28 06:17:59;;;;;;;;;;;1.40;99.90;;;;;;5074384;28;19931;-50
2022/01/28 06:20:28;;;;;;;;;;;1.40;99.90;;;;;;5092456;28;19924;-51
2022/01/28 06:22:55;;;;;;;;;;;1.40;99.90;;;;;;5086970;28;20378;-50
2022/01/28 06:25:22;;;;;;;;;;;1.40;99.90;;;;;;5081963;28;19951;-51
2022/01/28 06:27:49;;;;;;;;;;;1.30;99.90;;;;;;5092511;28;20397;-50
2022/01/28 06:30:16;;;;;;;;;;;1.20;99.90;;;;;;5092295;28;19974;-50
2022/01/28 06:32:43;;;;;;;;;;;1.30;99.90;;;;;;5092778;28;19932;-50
2022/01/28 06:35:10;;;;;;;;;;;1.20;99.90;;;;;;5088371;28;19969;-50
2022/01/28 06:37:39;;;;;;;;;;;1.20;99.90;;;;;;5081840;28;19924;-50
2022/01/28 06:40:07;;;;;;;;;;;1.20;99.90;;;;;;5091988;28;19928;-50
2022/01/28 06:42:33;;;;;;;;;;;1.20;99.90;;;;;;5090862;28;19924;-50
2022/01/28 06:45:00;;;;;;;;;;;1.30;99.90;;;;;;5092506;28;19928;-50
2022/01/28 06:47:27;;;;;;;;;;;1.20;99.90;;;;;;5091702;28;19924;-50
2022/01/28 06:49:54;;;;;;;;;;;1.20;99.90;;;;;;5095048;28;19928;-50
2022/01/28 06:52:21;;;;;;;;;;;1.30;99.90;;;;;;5091933;28;19957;-51
2022/01/28 06:54:50;;;;;;;;;;;1.40;99.90;;;;;;5092333;28;19928;-50
2022/01/28 06:57:16;;;;;;;;;;;1.30;99.90;;;;;;5092365;28;19982;-52
2022/01/28 06:59:44;;;;;;;;;;;1.30;99.90;;;;;;5091768;28;19984;-52
2022/01/28 07:02:10;;;;;;;;;;;1.40;99.90;;;;;;5092105;28;19931;-52
2022/01/28 07:04:37;;;;;;;;;;;1.40;99.90;;;;;;5091640;28;19924;-53
2022/01/28 07:07:05;;;;;;;;;;;1.40;99.90;;;;;;5090116;28;19924;-52
2022/01/28 07:09:32;;;;;;;;;;;1.30;99.90;;;;;;5091753;28;19934;-52
2022/01/28 07:12:01;;;;;;;;;;;1.30;99.90;;;;;;5092012;28;20007;-52
2022/01/28 07:14:27;;;;;;;;;;;1.30;99.90;;;;;;5092174;28;19924;-52
2022/01/28 07:16:54;;;;;;;;;;;1.40;99.90;;;;;;5092056;28;19924;-52
2022/01/28 07:19:21;;;;;;;;;;;1.40;99.90;;;;;;5091569;28;21133;-52
2022/01/28 07:21:48;;;;;;;;;;;1.40;99.90;;;;;;5096993;28;19931;-52
2022/01/28 07:24:14;;;;;;;;;;;1.60;99.90;;;;;;5103454;28;19928;-52
2022/01/28 07:26:41;;;;;;;;;;;1.50;99.90;;;;;;5092440;28;19977;-52
2022/01/28 07:29:11;;;;;;;;;;;1.50;99.90;;;;;;5091711;28;19959;-52
2022/01/28 07:31:38;;;;;;;;;;;1.50;99.90;;;;;;5092614;28;19978;-53
2022/01/28 07:34:06;;;;;;;;;;;1.50;99.90;;;;;;5107899;28;19924;-52
2022/01/28 07:36:32;;;;;;;;;;;1.50;99.90;;;;;;5071799;28;19971;-52
2022/01/28 07:38:59;;;;;;;;;;;1.50;99.90;;;;;;5076877;28;19997;-52
2022/01/28 07:41:26;;;;;;;;;;;1.60;99.90;;;;;;5091578;28;20296;-53
2022/01/28 07:43:53;;;;;;;;;;;1.80;99.90;;;;;;5091956;28;19931;-52
2022/01/28 07:46:21;;;;;;;;;;;1.70;99.90;;;;;;5091873;28;19924;-53
2022/01/28 07:48:48;;;;;;;;;;;1.70;99.90;;;;;;5091399;28;20386;-53
2022/01/28 07:51:15;;;;;;;;;;;1.70;99.90;;;;;;5091626;28;19981;-52
2022/01/28 07:53:42;;;;;;;;;;;1.70;99.90;;;;;;5091695;28;19940;-52
2022/01/28 07:56:09;;;;;;;;;;;1.70;99.90;;;;;;5091919;28;19997;-52
2022/01/28 07:58:35;;;;;;;;;;;1.70;99.90;;;;;;5091132;28;20398;-52
2022/01/28 08:01:02;;;;;;;;;;;1.80;99.90;;;;;;5091554;28;19924;-53
2022/01/28 08:03:30;;;;;;;;;;;1.80;99.90;;;;;;5091652;28;19924;-53
2022/01/28 08:05:57;;;;;;;;;;;1.80;99.90;;;;;;5091728;28;19935;-52
2022/01/28 08:08:24;;;;;;;;;;;1.80;99.90;;;;;;5091602;28;19928;-53
2022/01/28 08:10:51;;;;;;;;;;;1.80;99.90;;;;;;5104081;28;19961;-53
2022/01/28 08:13:18;;;;;;;;;;;2.00;99.90;;;;;;5091754;28;19924;-52
2022/01/28 08:15:45;;;;;;;;;;;2.10;99.90;;;;;;5091368;28;19950;-52
2022/01/28 08:18:12;;;;;;;;;;;2.30;99.90;;;;;;5083673;28;19925;-52
2022/01/28 08:20:40;;;;;;;;;;;2.40;99.90;;;;;;5072438;28;20279;-54
2022/01/28 08:23:06;;;;;;;;;;;2.60;99.90;;;;;;5091305;28;19931;-53
2022/01/28 08:25:34;;;;;;;;;;;2.70;99.90;;;;;;5091069;28;19924;-53
2022/01/28 08:28:01;;;;;;;;;;;2.90;99.90;;;;;;5090689;28;19989;-53
2022/01/28 08:30:28;;;;;;;;;;;3.20;99.90;;;;;;5091390;28;19981;-53
2022/01/28 08:32:55;;;;;;;;;;;3.30;99.90;;;;;;5091183;28;19969;-52
2022/01/28 08:35:29;;;;;;;;;;;3.40;99.90;;;;;;5091245;28;19928;-52
2022/01/28 08:37:58;;;;;;;;;;;3.40;99.90;;;;;;5089822;28;19931;-53
2022/01/28 08:40:25;;;;;;;;;;;3.40;99.90;;;;;;5091043;28;19931;-53
2022/01/28 08:42:52;;;;;;;;;;;3.60;99.90;;;;;;5091111;28;19924;-53
2022/01/28 08:45:18;;;;;;;;;;;3.60;99.90;;;;;;5090943;28;19924;-53
2022/01/28 08:47:45;;;;;;;;;;;3.70;99.90;;;;;;5090937;28;20441;-52
2022/01/28 08:50:12;;;;;;;;;;;3.70;99.90;;;;;;5090286;28;19932;-52
2022/01/28 08:52:39;;;;;;;;;;;3.80;99.90;;;;;;5093044;28;19924;-52
2022/01/28 08:55:08;;;;;;;;;;;3.90;99.90;;;;;;5094952;28;19928;-52
2022/01/28 08:57:34;;;;;;;;;;;4.10;99.90;;;;;;5094923;28;19924;-52
2022/01/28 09:00:07;;;;;;;;;;;4.40;99.90;;;;;;5094981;28;19927;-52
2022/01/28 09:02:33;;;;;;;;;;;4.50;99.90;;;;;;5087225;28;20315;-54
2022/01/28 09:05:00;;;;;;;;;;;4.70;99.90;;;;;;5074706;28;19931;-53
2022/01/28 09:07:27;;;;;;;;;;;5.80;99.90;;;;;;5078237;28;19939;-53
2022/01/28 09:09:58;;;;;;;;;;;7.40;99.90;;;;;;5094275;28;19924;-51
2022/01/28 09:12:39;;;;;;;;;;;8.60;99.90;;;;;;5093490;28;19931;-52
2022/01/28 09:15:07;;;;;;;;;;;9.50;99.90;;;;;;5093922;28;19924;-51
2022/01/28 09:17:34;;;;;;;;;;;9.40;99.90;;;;;;5094545;28;20004;-50
2022/01/28 09:20:02;;;;;;;;;;;8.70;99.90;;;;;;5094288;28;19970;-50
2022/01/28 09:22:28;;;;;;;;;;;7.80;99.90;;;;;;5094415;28;19924;-51
2022/01/28 09:24:55;;;;;;;;;;;6.80;99.90;;;;;;5094296;28;20454;-49
2022/01/28 09:27:22;;;;;;;;;;;6.10;99.90;;;;;;5090129;28;19928;-51
2022/01/28 09:29:50;;;;;;;;;;;5.50;99.90;;;;;;5084700;28;19998;-50
2022/01/28 09:32:17;;;;;;;;;;;5.20;99.90;;;;;;5074204;28;19925;-51
2022/01/28 09:34:44;;;;;;;;;;;5.20;99.90;;;;;;5088071;28;19971;-51
2022/01/28 09:37:12;;;;;;;;;;;5.40;99.90;;;;;;5094354;28;19924;-51
2022/01/28 09:39:43;;;;;;;;;;;5.70;99.90;;;;;;5093889;28;19924;-52
2022/01/28 09:42:12;;;;;;;;;;;5.40;99.90;;;;;;5094405;28;19925;-52
2022/01/28 09:44:39;;;;;;;;;;;5.00;99.90;;;;;;5094186;28;19931;-52
2022/01/28 09:47:09;;;;;;;;;;;4.80;99.90;;;;;;5094029;28;20385;-52
2022/01/28 09:49:36;;;;;;;;;;;4.70;99.90;;;;;;5093883;28;19931;-51
2022/01/28 09:52:04;;;;;;;;;;;4.40;99.90;;;;;;5094242;28;19931;-51
2022/01/28 09:54:31;;;;;;;;;;;4.50;99.90;;;;;;5094161;28;19924;-51
2022/01/28 09:56:59;;;;;;;;;;;4.20;99.90;;;;;;5093844;28;19988;-51
2022/01/28 09:59:25;;;;;;;;;;;4.20;99.90;;;;;;5093623;28;20348;-52
2022/01/28 10:01:53;;;;;;;;;;;3.90;99.90;;;;;;5093768;28;19977;-51
2022/01/28 10:04:21;;;;;;;;;;;4.00;99.90;;;;;;5093553;28;19978;-51
2022/01/28 10:06:49;;;;;;;;;;;4.10;99.90;;;;;;5093187;28;19985;-51
2022/01/28 10:09:17;;;;;;;;;;;4.10;99.90;;;;;;5100890;28;20282;-51
2022/01/28 10:11:45;;;;;;;;;;;4.00;99.90;;;;;;5103340;28;19931;-52
2022/01/28 10:14:15;;;;;;;;;;;3.90;99.90;;;;;;5081901;28;19932;-51
2022/01/28 10:16:42;;;;;;;;;;;3.90;99.90;;;;;;5093340;28;19924;-51
2022/01/28 10:19:09;;;;;;;;;;;4.00;99.90;;;;;;5119955;22;20337;-52
2022/01/28 10:21:38;;;;;;;;;;;4.10;99.90;;;;;;5136661;27;20389;-52
2022/01/28 10:24:06;;;;;;;;;;;4.30;99.90;;;;;;5135813;27;20373;-52
2022/01/28 10:26:34;;;;;;;;;;;4.30;99.90;;;;;;5115796;28;19997;-52
2022/01/28 10:29:02;;;;;;;;;;;4.30;99.90;;;;;;5124995;27;19968;-53
2022/01/28 10:31:49;;;;;;;;;;;4.20;99.90;;;;;;5132473;27;19907;-52
2022/01/28 10:34:20;;;;;;;;;;;4.20;99.90;;;;;;5128035;27;20330;-51
2022/01/28 10:36:49;;;;;;;;;;;4.00;99.90;;;;;;5131072;27;19969;-52
2022/01/28 10:39:18;;;;;;;;;;;3.90;99.90;;;;;;5135890;27;20443;-51
2022/01/28 10:41:51;;;;;;;;;;;3.90;99.90;;;;;;5135694;27;19927;-52
2022/01/28 10:44:18;;;;;;;;;;;3.90;99.90;;;;;;5135620;27;19946;-52
2022/01/28 10:46:51;;;;;;;;;;;3.80;99.90;;;;;;5135835;27;19930;-52
2022/01/28 10:49:17;;;;;;;;;;;3.90;99.90;;;;;;5119725;27;20361;-52
2022/01/28 10:51:47;;;;;;;;;;;4.00;99.90;;;;;;5118016;27;19928;-52
2022/01/28 10:54:16;;;;;;;;;;;5.00;99.90;;;;;;5115373;28;19924;-52
2022/01/28 10:56:50;;;;;;;;;;;5.60;99.90;;;;;;5114852;28;19924;-52
2022/01/28 10:59:19;;;;;;;;;;;5.50;99.90;;;;;;5115116;28;20355;-52
2022/01/28 11:01:47;;;;;;;;;;;5.20;99.90;;;;;;5113403;28;19976;-52
2022/01/28 11:04:14;;;;;;;;;;;5.10;99.90;;;;;;5114720;28;19984;-52
2022/01/28 11:06:41;;;;;;;;;;;4.90;99.90;;;;;;5114813;28;20278;-52
2022/01/28 11:09:09;;;;;;;;;;;4.90;99.90;;;;;;5114401;28;19931;-52
2022/01/28 11:11:38;;;;;;;;;;;5.00;99.90;;;;;;5114653;28;19986;-52
2022/01/28 11:14:08;;;;;;;;;;;4.90;99.90;;;;;;5114616;28;20000;-52
2022/01/28 11:16:36;;;;;;;;;;;4.60;99.90;;;;;;5114817;27;19928;-52
2022/01/28 11:19:03;;;;;;;;;;;4.30;99.90;;;;;;5123244;27;19931;-53
2022/01/28 11:21:34;;;;;;;;;;;4.20;99.90;;;;;;5134283;27;20346;-51
2022/01/28 11:24:04;;;;;;;;;;;4.40;99.90;;;;;;5125983;27;19977;-52
2022/01/28 11:26:35;;;;;;;;;;;4.70;99.90;;;;;;5114852;28;19930;-52
2022/01/28 11:29:12;;;;;;;;;;;4.80;99.90;;;;;;5115719;27;19924;-51
2022/01/28 11:31:43;;;;;;;;;;;4.90;99.90;;;;;;5126221;27;19923;-51
2022/01/28 11:34:17;;;;;;;;;;;5.00;99.90;;;;;;5123304;27;20014;-51
2022/01/28 11:36:44;;;;;;;;;;;4.90;99.90;;;;;;5135012;27;19980;-51
2022/01/28 11:39:21;;;;;;;;;;;4.60;99.90;;;;;;5134773;27;20388;-51
2022/01/28 11:41:59;;;;;;;;;;;4.60;99.90;;;;;;5134197;27;20022;-52
2022/01/28 11:44:41;;;;;;;;;;;4.90;99.90;;;;;;5134856;27;19924;-51
2022/01/28 11:47:11;;;;;;;;;;;5.20;99.90;;;;;;5131728;27;20277;-52
2022/01/28 11:49:52;;;;;;;;;;;5.40;99.90;;;;;;5119193;27;20445;-51
2022/01/28 11:52:22;;;;;;;;;;;5.60;99.90;;;;;;5130567;27;20610;-52
2022/01/28 11:54:49;;;;;;;;;;;5.70;99.90;;;;;;5131052;27;19961;-52
2022/01/28 11:57:17;;;;;;;;;;;5.80;99.90;;;;;;5129141;27;19927;-51
2022/01/28 11:59:44;;;;;;;;;;;6.00;99.90;;;;;;5131345;27;20385;-52
2022/01/28 12:02:14;;;;;;;;;;;5.90;99.90;;;;;;5128313;27;19928;-52
2022/01/28 12:04:41;;;;;;;;;;;6.10;99.90;;;;;;5114546;28;19927;-52
2022/01/28 12:07:10;;;;;;;;;;;6.30;99.90;;;;;;5113882;28;19972;-51
2022/01/28 12:09:37;;;;;;;;;;;6.10;99.90;;;;;;5122431;28;20412;-54
2022/01/28 12:12:07;;;;;;;;;;;6.20;99.90;;;;;;5113206;28;19931;-53
2022/01/28 12:14:55;;;;;;;;;;;6.30;99.90;;;;;;5114762;28;19931;-52
2022/01/28 12:17:39;;;;;;;;;;;6.20;99.90;;;;;;5120805;28;19932;-52
2022/01/28 12:20:27;;;;;;;;;;;6.00;99.90;;;;;;5121550;28;19976;-52
2022/01/28 12:23:12;;;;;;;;;;;5.90;99.90;;;;;;5126157;28;19908;-52
2022/01/28 12:25:49;;;;;;;;;;;5.70;99.90;;;;;;5132527;27;19934;-53
2022/01/28 12:28:17;;;;;;;;;;;5.60;99.90;;;;;;5137144;27;19924;-52
2022/01/28 12:30:44;;;;;;;;;;;5.50;99.90;;;;;;5136619;27;19931;-52
2022/01/28 12:33:12;;;;;;;;;;;5.50;99.90;;;;;;5132792;27;20345;-53
2022/01/28 12:35:40;;;;;;;;;;;5.50;99.90;;;;;;5132249;27;20322;-53
2022/01/28 12:38:07;;;;;;;;;;;5.50;99.90;;;;;;5129903;27;20411;-54
2022/01/28 12:40:36;;;;;;;;;;;5.50;99.90;;;;;;5136390;27;20396;-53
2022/01/28 12:43:04;;;;;;;;;;;5.60;99.90;;;;;;5138090;27;19976;-53
2022/01/28 12:45:31;;;;;;;;;;;5.80;99.90;;;;;;5138093;27;19923;-53
2022/01/28 12:47:58;;;;;;;;;;;5.90;99.90;;;;;;5138813;27;20381;-53
2022/01/28 12:50:28;;;;;;;;;;;5.90;99.90;;;;;;5138258;27;20414;-52
2022/01/28 12:52:55;;;;;;;;;;;6.10;99.90;;;;;;5138517;27;20309;-52
2022/01/28 12:55:31;;;;;;;;;;;6.20;99.90;;;;;;5134141;27;19927;-52
2022/01/28 12:57:58;;;;;;;;;;;6.30;99.90;;;;;;5117814;28;20113;-53
2022/01/28 13:00:25;;;;;;;;;;;6.30;99.90;;;;;;5129070;27;19924;-53
2022/01/28 13:02:52;;;;;;;;;;;6.20;99.90;;;;;;5122628;27;20497;-52
2022/01/28 13:05:34;;;;;;;;;;;5.90;99.90;;;;;;5133235;27;19927;-53
2022/01/28 13:10:45;;;;;;;;;;;5.70;99.90;;;;;;5117517;27;20018;-52
2022/01/28 13:13:12;;;;;;;;;;;5.80;99.90;;;;;;5130182;27;20348;-52
2022/01/28 13:15:39;;;;;;;;;;;5.70;99.90;;;;;;5120429;27;19927;-52
2022/01/28 13:18:07;;;;;;;;;;;5.70;99.90;;;;;;5118565;27;20442;-53
2022/01/28 13:20:38;;;;;;;;;;;5.90;99.90;;;;;;5135449;27;19983;-52
2022/01/28 13:23:05;;;;;;;;;;;6.20;99.90;;;;;;5136957;27;19970;-52
2022/01/28 13:25:32;;;;;;;;;;;6.10;99.90;;;;;;5130959;27;19969;-53
2022/01/28 13:28:01;;;;;;;;;;;6.20;99.90;;;;;;5126631;27;19935;-52
2022/01/28 13:30:32;;;;;;;;;;;6.00;99.90;;;;;;5135643;27;19976;-52
2022/01/28 13:33:02;;;;;;;;;;;6.00;99.90;;;;;;5127892;27;19927;-53
2022/01/28 13:35:29;;;;;;;;;;;6.00;99.90;;;;;;5116631;28;20320;-53
2022/01/28 13:38:01;;;;;;;;;;;6.00;99.90;;;;;;5116524;28;19924;-53
2022/01/28 13:40:33;;;;;;;;;;;6.00;99.90;;;;;;5116415;27;19946;-52
2022/01/28 13:43:00;;;;;;;;;;;6.10;99.90;;;;;;5116812;27;19927;-53
2022/01/28 13:45:31;;;;;;;;;;;6.10;99.90;;;;;;5136223;27;20373;-53
2022/01/28 13:47:59;;;;;;;;;;;6.10;99.90;;;;;;5136048;27;19927;-52
2022/01/28 13:50:27;;;;;;;;;;;6.30;99.90;;;;;;5136126;27;19928;-53
2022/01/28 13:53:21;;;;;;;;;;;6.20;99.90;;;;;;5136874;27;19991;-53
2022/01/28 13:55:49;;;;;;;;;;;6.20;99.90;;;;;;5115090;28;19992;-53
2022/01/28 13:58:16;;;;;;;;;;;6.50;99.90;;;;;;5114949;28;20044;-52
2022/01/28 14:00:44;;;;;;;;;;;6.80;99.90;;;;;;5129725;27;20397;-53
2022/01/28 14:03:17;;;;;;;;;;;7.00;99.90;;;;;;5136529;27;19943;-53
2022/01/28 14:05:54;;;;;;;;;;;7.00;99.90;;;;;;5135963;27;19980;-53
2022/01/28 14:08:38;;;;;;;;;;;7.00;99.90;;;;;;5127903;27;20330;-53
2022/01/28 14:11:18;;;;;;;;;;;7.00;99.90;;;;;;5119529;28;20010;-53
2022/01/28 14:13:46;;;;;;;;;;;6.80;99.90;;;;;;5119137;28;20373;-53
2022/01/28 14:16:15;;;;;;;;;;;6.70;99.90;;;;;;5118887;28;20288;-53
2022/01/28 14:18:42;;;;;;;;;;;6.60;99.90;;;;;;5131858;27;20419;-53
2022/01/28 14:21:09;;;;;;;;;;;6.60;99.90;;;;;;5138623;27;19927;-53
2022/01/28 14:23:43;;;;;;;;;;;6.90;99.90;;;;;;5139760;27;19923;-53
2022/01/28 14:26:10;;;;;;;;;;;7.00;99.90;;;;;;5138315;27;19976;-53
2022/01/28 14:28:50;;;;;;;;;;;6.80;99.90;;;;;;5130626;27;20113;-53
2022/01/28 14:31:17;;;;;;;;;;;6.50;99.90;;;;;;5127399;27;19924;-53
2022/01/28 14:33:45;;;;;;;;;;;6.50;99.90;;;;;;5130824;27;19923;-53
2022/01/28 14:36:12;;;;;;;;;;;6.50;99.90;;;;;;5125754;27;19997;-53
2022/01/28 14:38:38;;;;;;;;;;;6.50;99.90;;;;;;5116642;27;19977;-53
2022/01/28 14:41:07;;;;;;;;;;;6.50;99.90;;;;;;5115257;28;19928;-53
2022/01/28 14:43:33;;;;;;;;;;;6.40;99.90;;;;;;5116630;27;19993;-52
2022/01/28 14:46:00;;;;;;;;;;;6.40;99.90;;;;;;5122904;27;19944;-53
2022/01/28 14:48:28;;;;;;;;;;;6.30;99.90;;;;;;5138131;27;19953;-53
2022/01/28 14:50:55;;;;;;;;;;;6.20;99.90;;;;;;5126628;27;19924;-52
2022/01/28 14:53:21;;;;;;;;;;;6.20;99.90;;;;;;5131888;27;19923;-52
2022/01/28 14:55:48;;;;;;;;;;;6.10;99.90;;;;;;5131865;27;20305;-53
2022/01/28 14:58:17;;;;;;;;;;;5.70;99.90;;;;;;5122251;27;20053;-52
2022/01/28 15:00:44;;;;;;;;;;;5.50;99.90;;;;;;5121487;27;20351;-53
2022/01/28 15:03:10;;;;;;;;;;;5.50;99.90;;;;;;5119775;27;20300;-53
2022/01/28 15:05:38;;;;;;;;;;;5.40;99.90;;;;;;5127673;27;19983;-53
2022/01/28 15:08:08;;;;;;;;;;;5.50;99.90;;;;;;5129461;27;19947;-53
2022/01/28 15:10:35;;;;;;;;;;;5.20;99.90;;;;;;5134281;27;20364;-53
2022/01/28 15:13:02;;;;;;;;;;;5.20;99.90;;;;;;5117352;27;20010;-54
2022/01/28 15:15:31;;;;;;;;;;;5.10;99.90;;;;;;5115790;27;19924;-53
2022/01/28 15:17:58;;;;;;;;;;;5.10;99.90;;;;;;5121173;27;19976;-54
2022/01/28 15:20:27;;;;;;;;;;;5.10;99.90;;;;;;5117502;27;19927;-52
2022/01/28 15:22:55;;;;;;;;;;;5.30;99.90;;;;;;5114424;28;19970;-52
2022/01/28 15:25:21;;;;;;;;;;;5.20;99.90;;;;;;5114593;27;20040;-52
2022/01/28 15:27:50;;;;;;;;;;;5.10;99.90;;;;;;5114118;27;19927;-54
2022/01/28 15:38:35;;;;;;;;;;;4.90;99.90;;;;;;5126995;27;19933;-52
2022/01/28 15:41:02;;;;;;;;;;;4.80;99.90;;;;;;5115136;27;19928;-52
2022/01/28 15:43:29;;;;;;;;;;;4.60;99.90;;;;;;5118553;27;19932;-52